sensor_id;sensor_type;location;lat;lon;timestamp;temperature;humidity
4520;DHT22;2272;49.226;8.108;2024-02-16T00:01:13;10.20;99.90
4520;DHT22;2272;49.226;8.108;2024-02-16T00:03:40;10.20;99.90
4520;DHT22;2272;49.226;8.108;2024-02-16T00:06:07;10.20;99.90
4520;DHT22;2272;49.226;8.108;2024-02-16T00:08:34;10.20;99.90
4520;DHT22;2272;49.226;8.108;2024-02-16T00:11:04;10.20;99.90
4520;DHT22;2272;49.226;8.108;2024-02-16T00:13:31;10.20;99.90
4520;DHT22;2272;49.226;8.108;2024-02-16T00:15:57;10.20;99.90
4520;DHT22;2272;49.226;8.108;2024-02-16T00:18:25;10.10;99.90
4520;DHT22;2272;49.226;8.108;2024-02-16T00:20:52;10.10;99.90
4520;DHT22;2272;49.226;8.108;2024-02-16T00:23:19;10.10;99.90
4520;DHT22;2272;49.226;8.108;2024-02-16T00:25:47;10.10;99.90
4520;DHT22;2272;49.226;8.108;2024-02-16T00:28:14;10.10;99.90
4520;DHT22;2272;49.226;8.108;2024-02-16T00:30:41;10.10;99.90
4520;DHT22;2272;49.226;8.108;2024-02-16T00:33:08;10.10;99.90
4520;DHT22;2272;49.226;8.108;2024-02-16T00:35:36;10.10;99.90
4520;DHT22;2272;49.226;8.108;2024-02-16T00:38:03;10.10;99.90
4520;DHT22;2272;49.226;8.108;2024-02-16T00:40:29;10.10;99.90
4520;DHT22;2272;49.226;8.108;2024-02-16T00:42:56;10.10;99.90
4520;DHT22;2272;49.226;8.108;2024-02-16T00:45:23;10.10;99.90
4520;DHT22;2272;49.226;8.108;2024-02-16T00:47:49;10.10;99.90
4520;DHT22;2272;49.226;8.108;2024-02-16T00:50:16;10.10;99.90
4520;DHT22;2272;49.226;8.108;2024-02-16T00:52:44;10.10;99.90
4520;DHT22;2272;49.226;8.108;2024-02-16T00:55:11;10.10;99.90
4520;DHT22;2272;49.226;8.108;2024-02-16T00:57:38;10.10;99.90
4520;DHT22;2272;49.226;8.108;2024-02-16T01:00:06;10.10;99.90
4520;DHT22;2272;49.226;8.108;2024-02-16T01:02:34;10.10;99.90
4520;DHT22;2272;49.226;8.108;2024-02-16T01:05:01;10.10;99.90
4520;DHT22;2272;49.226;8.108;2024-02-16T01:07:28;10.10;99.90
4520;DHT22;2272;49.226;8.108;2024-02-16T01:09:57;10.10;99.90
4520;DHT22;2272;49.226;8.108;2024-02-16T01:12:25;10.10;99.90
4520;DHT22;2272;49.226;8.108;2024-02-16T01:14:52;10.10;99.90
4520;DHT22;2272;49.226;8.108;2024-02-16T01:17:18;10.10;99.90
4520;DHT22;2272;49.226;8.108;2024-02-16T01:19:45;10.10;99.90
4520;DHT22;2272;49.226;8.108;2024-02-16T01:22:12;10.10;99.90
4520;DHT22;2272;49.226;8.108;2024-02-16T01:24:39;10.10;99.90
4520;DHT22;2272;49.226;8.108;2024-02-16T01:27:07;10.20;99.90
4520;DHT22;2272;49.226;8.108;2024-02-16T01:29:34;10.20;99.90
4520;DHT22;2272;49.226;8.108;2024-02-16T01:32:00;10.20;99.90
4520;DHT22;2272;49.226;8.108;2024-02-16T01:34:28;10.20;99.90
4520;DHT22;2272;49.226;8.108;2024-02-16T01:36:57;10.30;99.90
4520;DHT22;2272;49.226;8.108;2024-02-16T01:39:23;10.30;99.90
4520;DHT22;2272;49.226;8.108;2024-02-16T01:41:50;10.40;99.90
4520;DHT22;2272;49.226;8.108;2024-02-16T01:44:18;10.40;99.90
4520;DHT22;2272;49.226;8.108;2024-02-16T01:46:45;10.40;99.90
4520;DHT22;2272;49.226;8.108;2024-02-16T01:49:13;10.50;99.90
4520;DHT22;2272;49.226;8.108;2024-02-16T01:51:41;10.50;99.90
4520;DHT22;2272;49.226;8.108;2024-02-16T01:54:10;10.50;99.90
4520;DHT22;2272;49.226;8.108;2024-02-16T01:56:37;10.40;99.90
4520;DHT22;2272;49.226;8.108;2024-02-16T01:59:03;10.30;99.90
4520;DHT22;2272;49.226;8.108;2024-02-16T02:01:31;10.30;99.90
4520;DHT22;2272;49.226;8.108;2024-02-16T02:03:58;10.20;99.90
4520;DHT22;2272;49.226;8.108;2024-02-16T02:06:25;10.20;99.90
4520;DHT22;2272;49.226;8.108;2024-02-16T02:08:52;10.20;99.90
4520;DHT22;2272;49.226;8.108;2024-02-16T02:11:18;10.10;99.90
4520;DHT22;2272;49.226;8.108;2024-02-16T02:13:45;10.10;99.90
4520;DHT22;2272;49.226;8.108;2024-02-16T02:16:12;10.00;99.90
4520;DHT22;2272;49.226;8.108;2024-02-16T02:18:40;9.90;99.90
4520;DHT22;2272;49.226;8.108;2024-02-16T02:21:08;9.90;99.90
4520;DHT22;2272;49.226;8.108;2024-02-16T02:23:37;9.80;99.90
4520;DHT22;2272;49.226;8.108;2024-02-16T02:26:03;9.70;99.90
4520;DHT22;2272;49.226;8.108;2024-02-16T02:28:30;9.60;99.90
4520;DHT22;2272;49.226;8.108;2024-02-16T02:30:59;9.60;99.90
4520;DHT22;2272;49.226;8.108;2024-02-16T02:33:26;9.50;99.90
4520;DHT22;2272;49.226;8.108;2024-02-16T02:35:53;9.50;99.90
4520;DHT22;2272;49.226;8.108;2024-02-16T02:38:19;9.40;99.90
4520;DHT22;2272;49.226;8.108;2024-02-16T02:40:47;9.40;99.90
4520;DHT22;2272;49.226;8.108;2024-02-16T02:43:14;9.40;99.90
4520;DHT22;2272;49.226;8.108;2024-02-16T02:45:41;9.40;99.90
4520;DHT22;2272;49.226;8.108;2024-02-16T02:48:07;9.40;99.90
4520;DHT22;2272;49.226;8.108;2024-02-16T02:50:34;9.50;99.90
4520;DHT22;2272;49.226;8.108;2024-02-16T02:53:01;9.60;99.90
4520;DHT22;2272;49.226;8.108;2024-02-16T02:55:27;9.60;99.90
4520;DHT22;2272;49.226;8.108;2024-02-16T02:57:55;9.70;99.90
4520;DHT22;2272;49.226;8.108;2024-02-16T03:00:23;9.70;99.90
4520;DHT22;2272;49.226;8.108;2024-02-16T03:02:51;9.70;99.90
4520;DHT22;2272;49.226;8.108;2024-02-16T03:05:18;9.60;99.90
4520;DHT22;2272;49.226;8.108;2024-02-16T03:07:45;9.60;99.90
4520;DHT22;2272;49.226;8.108;2024-02-16T03:10:12;9.50;99.90
4520;DHT22;2272;49.226;8.108;2024-02-16T03:12:40;9.40;99.90
4520;DHT22;2272;49.226;8.108;2024-02-16T03:15:09;9.40;99.90
4520;DHT22;2272;49.226;8.108;2024-02-16T03:17:36;9.30;99.90
4520;DHT22;2272;49.226;8.108;2024-02-16T03:20:03;9.20;99.90
4520;DHT22;2272;49.226;8.108;2024-02-16T03:22:30;9.20;99.90
4520;DHT22;2272;49.226;8.108;2024-02-16T03:24:56;9.10;99.90
4520;DHT22;2272;49.226;8.108;2024-02-16T03:27:23;9.10;99.90
4520;DHT22;2272;49.226;8.108;2024-02-16T03:29:50;9.00;99.90
4520;DHT22;2272;49.226;8.108;2024-02-16T03:32:18;9.00;99.90
4520;DHT22;2272;49.226;8.108;2024-02-16T03:34:44;9.00;99.90
4520;DHT22;2272;49.226;8.108;2024-02-16T03:37:11;9.00;99.90
4520;DHT22;2272;49.226;8.108;2024-02-16T03:39:38;9.00;99.90
4520;DHT22;2272;49.226;8.108;2024-02-16T03:42:05;9.00;99.90
4520;DHT22;2272;49.226;8.108;2024-02-16T03:44:31;9.00;99.90
4520;DHT22;2272;49.226;8.108;2024-02-16T03:46:58;9.00;99.90
4520;DHT22;2272;49.226;8.108;2024-02-16T03:49:26;9.00;99.90
4520;DHT22;2272;49.226;8.108;2024-02-16T03:51:53;9.00;99.90
4520;DHT22;2272;49.226;8.108;2024-02-16T03:54:20;9.10;99.90
4520;DHT22;2272;49.226;8.108;2024-02-16T03:56:46;9.10;99.90
4520;DHT22;2272;49.226;8.108;2024-02-16T03:59:14;9.00;99.90
4520;DHT22;2272;49.226;8.108;2024-02-16T04:01:41;9.10;99.90
4520;DHT22;2272;49.226;8.108;2024-02-16T04:04:07;9.00;99.90
4520;DHT22;2272;49.226;8.108;2024-02-16T04:06:35;9.00;99.90
4520;DHT22;2272;49.226;8.108;2024-02-16T04:09:02;9.10;99.90
4520;DHT22;2272;49.226;8.108;2024-02-16T04:11:31;9.20;99.90
4520;DHT22;2272;49.226;8.108;2024-02-16T04:13:58;9.20;99.90
4520;DHT22;2272;49.226;8.108;2024-02-16T04:16:25;9.30;99.90
4520;DHT22;2272;49.226;8.108;2024-02-16T04:18:51;9.40;99.90
4520;DHT22;2272;49.226;8.108;2024-02-16T04:21:18;9.60;99.90
4520;DHT22;2272;49.226;8.108;2024-02-16T04:23:47;9.70;99.90
4520;DHT22;2272;49.226;8.108;2024-02-16T04:26:14;9.80;99.90
4520;DHT22;2272;49.226;8.108;2024-02-16T04:28:41;9.90;99.90
4520;DHT22;2272;49.226;8.108;2024-02-16T04:31:07;10.00;99.90
4520;DHT22;2272;49.226;8.108;2024-02-16T04:33:34;10.00;99.90
4520;DHT22;2272;49.226;8.108;2024-02-16T04:36:01;10.00;99.90
4520;DHT22;2272;49.226;8.108;2024-02-16T04:38:28;10.00;99.90
4520;DHT22;2272;49.226;8.108;2024-02-16T04:40:56;10.00;99.90
4520;DHT22;2272;49.226;8.108;2024-02-16T04:43:22;9.90;99.90
4520;DHT22;2272;49.226;8.108;2024-02-16T04:45:49;10.00;99.90
4520;DHT22;2272;49.226;8.108;2024-02-16T04:48:16;10.00;99.90
4520;DHT22;2272;49.226;8.108;2024-02-16T04:50:43;10.10;99.90
4520;DHT22;2272;49.226;8.108;2024-02-16T04:53:09;10.20;99.90
4520;DHT22;2272;49.226;8.108;2024-02-16T04:55:36;10.30;99.90
4520;DHT22;2272;49.226;8.108;2024-02-16T04:58:04;10.30;99.90
4520;DHT22;2272;49.226;8.108;2024-02-16T05:00:35;10.30;99.90
4520;DHT22;2272;49.226;8.108;2024-02-16T05:03:01;10.40;99.90
4520;DHT22;2272;49.226;8.108;2024-02-16T05:05:28;10.40;99.90
4520;DHT22;2272;49.226;8.108;2024-02-16T05:07:56;10.50;99.90
4520;DHT22;2272;49.226;8.108;2024-02-16T05:10:22;10.50;99.90
4520;DHT22;2272;49.226;8.108;2024-02-16T05:12:49;10.40;99.90
4520;DHT22;2272;49.226;8.108;2024-02-16T05:15:17;10.40;99.90
4520;DHT22;2272;49.226;8.108;2024-02-16T05:17:47;10.30;99.90
4520;DHT22;2272;49.226;8.108;2024-02-16T05:20:14;10.20;99.90
4520;DHT22;2272;49.226;8.108;2024-02-16T05:22:42;10.20;99.90
4520;DHT22;2272;49.226;8.108;2024-02-16T05:25:09;10.10;99.90
4520;DHT22;2272;49.226;8.108;2024-02-16T05:27:36;10.10;99.90
4520;DHT22;2272;49.226;8.108;2024-02-16T05:30:05;10.00;99.90
4520;DHT22;2272;49.226;8.108;2024-02-16T05:32:35;10.00;99.90
4520;DHT22;2272;49.226;8.108;2024-02-16T05:35:02;10.10;99.90
4520;DHT22;2272;49.226;8.108;2024-02-16T05:37:37;10.00;99.90
4520;DHT22;2272;49.226;8.108;2024-02-16T05:40:08;10.00;99.90
4520;DHT22;2272;49.226;8.108;2024-02-16T05:42:46;10.00;99.90
4520;DHT22;2272;49.226;8.108;2024-02-16T05:45:13;10.00;99.90
4520;DHT22;2272;49.226;8.108;2024-02-16T05:47:41;10.00;99.90
4520;DHT22;2272;49.226;8.108;2024-02-16T05:50:10;10.00;99.90
4520;DHT22;2272;49.226;8.108;2024-02-16T05:52:37;10.10;99.90
4520;DHT22;2272;49.226;8.108;2024-02-16T05:55:05;10.10;99.90
4520;DHT22;2272;49.226;8.108;2024-02-16T05:57:32;10.10;99.90
4520;DHT22;2272;49.226;8.108;2024-02-16T05:59:59;10.10;99.90
4520;DHT22;2272;49.226;8.108;2024-02-16T06:02:25;10.10;99.90
4520;DHT22;2272;49.226;8.108;2024-02-16T06:04:54;10.10;99.90
4520;DHT22;2272;49.226;8.108;2024-02-16T06:07:20;10.10;99.90
4520;DHT22;2272;49.226;8.108;2024-02-16T06:09:47;10.10;99.90
4520;DHT22;2272;49.226;8.108;2024-02-16T06:12:14;10.20;99.90
4520;DHT22;2272;49.226;8.108;2024-02-16T06:14:41;10.20;99.90
4520;DHT22;2272;49.226;8.108;2024-02-16T06:17:08;10.20;99.90
4520;DHT22;2272;49.226;8.108;2024-02-16T06:19:34;10.30;99.90
4520;DHT22;2272;49.226;8.108;2024-02-16T06:22:03;10.30;99.90
4520;DHT22;2272;49.226;8.108;2024-02-16T06:24:30;10.40;99.90
4520;DHT22;2272;49.226;8.108;2024-02-16T06:26:57;10.40;99.90
4520;DHT22;2272;49.226;8.108;2024-02-16T06:29:24;10.40;99.90
4520;DHT22;2272;49.226;8.108;2024-02-16T06:31:51;10.50;99.90
4520;DHT22;2272;49.226;8.108;2024-02-16T06:34:18;10.50;99.90
4520;DHT22;2272;49.226;8.108;2024-02-16T06:36:46;10.60;99.90
4520;DHT22;2272;49.226;8.108;2024-02-16T06:39:14;10.50;99.90
4520;DHT22;2272;49.226;8.108;2024-02-16T06:41:44;10.50;99.90
4520;DHT22;2272;49.226;8.108;2024-02-16T06:44:11;10.40;99.90
4520;DHT22;2272;49.226;8.108;2024-02-16T06:46:37;10.40;99.90
4520;DHT22;2272;49.226;8.108;2024-02-16T06:49:04;10.30;99.90
4520;DHT22;2272;49.226;8.108;2024-02-16T06:51:32;10.20;99.90
4520;DHT22;2272;49.226;8.108;2024-02-16T06:53:58;10.20;99.90
4520;DHT22;2272;49.226;8.108;2024-02-16T06:56:27;10.10;99.90
4520;DHT22;2272;49.226;8.108;2024-02-16T06:58:53;10.10;99.90
4520;DHT22;2272;49.226;8.108;2024-02-16T07:01:20;10.10;99.90
4520;DHT22;2272;49.226;8.108;2024-02-16T07:03:47;10.20;99.90
4520;DHT22;2272;49.226;8.108;2024-02-16T07:06:14;10.30;99.90
4520;DHT22;2272;49.226;8.108;2024-02-16T07:08:41;10.30;99.90
4520;DHT22;2272;49.226;8.108;2024-02-16T07:11:08;10.30;99.90
4520;DHT22;2272;49.226;8.108;2024-02-16T07:13:38;10.40;99.90
4520;DHT22;2272;49.226;8.108;2024-02-16T07:16:06;10.40;99.90
4520;DHT22;2272;49.226;8.108;2024-02-16T07:18:33;10.50;99.90
4520;DHT22;2272;49.226;8.108;2024-02-16T07:21:00;10.60;99.90
4520;DHT22;2272;49.226;8.108;2024-02-16T07:23:27;10.60;99.90
4520;DHT22;2272;49.226;8.108;2024-02-16T07:25:54;10.70;99.90
4520;DHT22;2272;49.226;8.108;2024-02-16T07:28:22;10.70;99.90
4520;DHT22;2272;49.226;8.108;2024-02-16T07:30:50;10.90;99.90
4520;DHT22;2272;49.226;8.108;2024-02-16T07:33:17;10.90;99.90
4520;DHT22;2272;49.226;8.108;2024-02-16T07:35:44;11.00;99.90
4520;DHT22;2272;49.226;8.108;2024-02-16T07:38:11;11.10;99.90
4520;DHT22;2272;49.226;8.108;2024-02-16T07:40:38;11.30;99.90
4520;DHT22;2272;49.226;8.108;2024-02-16T07:43:05;11.30;99.90
4520;DHT22;2272;49.226;8.108;2024-02-16T07:45:33;11.50;99.90
4520;DHT22;2272;49.226;8.108;2024-02-16T07:48:03;11.50;99.90
4520;DHT22;2272;49.226;8.108;2024-02-16T07:50:30;11.60;99.90
4520;DHT22;2272;49.226;8.108;2024-02-16T07:52:58;11.60;99.90
4520;DHT22;2272;49.226;8.108;2024-02-16T07:55:24;11.70;99.90
4520;DHT22;2272;49.226;8.108;2024-02-16T07:57:51;11.70;99.90
4520;DHT22;2272;49.226;8.108;2024-02-16T08:00:18;11.70;99.90
4520;DHT22;2272;49.226;8.108;2024-02-16T08:02:45;11.80;99.90
4520;DHT22;2272;49.226;8.108;2024-02-16T08:05:14;11.80;99.90
4520;DHT22;2272;49.226;8.108;2024-02-16T08:07:41;11.80;99.90
4520;DHT22;2272;49.226;8.108;2024-02-16T08:10:09;11.90;99.90
4520;DHT22;2272;49.226;8.108;2024-02-16T08:12:35;11.90;99.90
4520;DHT22;2272;49.226;8.108;2024-02-16T08:15:05;12.00;99.90
4520;DHT22;2272;49.226;8.108;2024-02-16T08:17:32;12.10;99.90
4520;DHT22;2272;49.226;8.108;2024-02-16T08:19:59;12.20;99.90
4520;DHT22;2272;49.226;8.108;2024-02-16T08:22:27;12.20;99.90
4520;DHT22;2272;49.226;8.108;2024-02-16T08:24:54;12.20;99.90
4520;DHT22;2272;49.226;8.108;2024-02-16T08:27:21;12.30;99.90
4520;DHT22;2272;49.226;8.108;2024-02-16T08:29:48;12.40;99.90
4520;DHT22;2272;49.226;8.108;2024-02-16T08:32:16;12.50;99.90
4520;DHT22;2272;49.226;8.108;2024-02-16T08:34:43;12.70;99.90
4520;DHT22;2272;49.226;8.108;2024-02-16T08:37:10;12.90;99.90
4520;DHT22;2272;49.226;8.108;2024-02-16T08:39:39;13.00;99.90
4520;DHT22;2272;49.226;8.108;2024-02-16T08:42:06;13.20;99.90
4520;DHT22;2272;49.226;8.108;2024-02-16T08:44:34;13.40;99.90
4520;DHT22;2272;49.226;8.108;2024-02-16T08:47:01;13.50;99.90
4520;DHT22;2272;49.226;8.108;2024-02-16T08:49:28;13.70;99.90
4520;DHT22;2272;49.226;8.108;2024-02-16T08:51:56;13.90;99.90
4520;DHT22;2272;49.226;8.108;2024-02-16T08:54:23;14.10;99.90
4520;DHT22;2272;49.226;8.108;2024-02-16T08:56:53;14.20;99.90
4520;DHT22;2272;49.226;8.108;2024-02-16T08:59:20;14.40;99.90
4520;DHT22;2272;49.226;8.108;2024-02-16T09:01:49;14.50;99.90
4520;DHT22;2272;49.226;8.108;2024-02-16T09:04:16;14.70;99.90
4520;DHT22;2272;49.226;8.108;2024-02-16T09:06:43;14.90;99.90
4520;DHT22;2272;49.226;8.108;2024-02-16T09:09:10;15.10;99.90
4520;DHT22;2272;49.226;8.108;2024-02-16T09:11:37;15.40;99.90
4520;DHT22;2272;49.226;8.108;2024-02-16T09:14:05;15.50;99.90
4520;DHT22;2272;49.226;8.108;2024-02-16T09:16:32;15.70;99.90
4520;DHT22;2272;49.226;8.108;2024-02-16T09:19:02;16.00;99.90
4520;DHT22;2272;49.226;8.108;2024-02-16T09:21:28;16.30;99.90
4520;DHT22;2272;49.226;8.108;2024-02-16T09:23:55;16.50;99.90
4520;DHT22;2272;49.226;8.108;2024-02-16T09:26:24;16.80;99.90
4520;DHT22;2272;49.226;8.108;2024-02-16T09:28:52;17.10;99.90
4520;DHT22;2272;49.226;8.108;2024-02-16T09:31:21;17.20;99.90
4520;DHT22;2272;49.226;8.108;2024-02-16T09:33:47;17.10;99.90
4520;DHT22;2272;49.226;8.108;2024-02-16T09:36:17;17.00;99.90
4520;DHT22;2272;49.226;8.108;2024-02-16T09:38:44;17.00;99.90
4520;DHT22;2272;49.226;8.108;2024-02-16T09:41:10;17.00;99.90
4520;DHT22;2272;49.226;8.108;2024-02-16T09:43:38;17.00;99.90
4520;DHT22;2272;49.226;8.108;2024-02-16T09:46:05;17.00;99.90
4520;DHT22;2272;49.226;8.108;2024-02-16T09:48:34;17.10;99.90
4520;DHT22;2272;49.226;8.108;2024-02-16T09:51:01;17.30;99.90
4520;DHT22;2272;49.226;8.108;2024-02-16T09:53:29;17.30;99.90
4520;DHT22;2272;49.226;8.108;2024-02-16T09:55:56;17.40;99.90
4520;DHT22;2272;49.226;8.108;2024-02-16T09:58:23;17.40;99.90
4520;DHT22;2272;49.226;8.108;2024-02-16T10:00:51;17.60;99.90
4520;DHT22;2272;49.226;8.108;2024-02-16T10:03:22;17.60;99.90
4520;DHT22;2272;49.226;8.108;2024-02-16T10:05:52;17.80;99.90
4520;DHT22;2272;49.226;8.108;2024-02-16T10:08:19;17.80;99.90
4520;DHT22;2272;49.226;8.108;2024-02-16T10:10:46;17.70;99.90
4520;DHT22;2272;49.226;8.108;2024-02-16T10:13:15;17.70;99.90
4520;DHT22;2272;49.226;8.108;2024-02-16T10:15:42;17.80;99.90
4520;DHT22;2272;49.226;8.108;2024-02-16T10:18:10;17.90;99.90
4520;DHT22;2272;49.226;8.108;2024-02-16T10:20:38;17.90;99.90
4520;DHT22;2272;49.226;8.108;2024-02-16T10:23:07;17.90;99.90
4520;DHT22;2272;49.226;8.108;2024-02-16T10:25:35;17.90;99.90
4520;DHT22;2272;49.226;8.108;2024-02-16T10:28:05;17.80;99.90
4520;DHT22;2272;49.226;8.108;2024-02-16T10:30:35;17.80;99.90
4520;DHT22;2272;49.226;8.108;2024-02-16T10:33:04;17.70;99.90
4520;DHT22;2272;49.226;8.108;2024-02-16T10:35:31;17.70;99.90
4520;DHT22;2272;49.226;8.108;2024-02-16T10:38:00;17.60;99.90
4520;DHT22;2272;49.226;8.108;2024-02-16T10:40:32;17.50;99.90
4520;DHT22;2272;49.226;8.108;2024-02-16T10:43:03;17.50;99.90
4520;DHT22;2272;49.226;8.108;2024-02-16T10:45:33;17.50;99.90
4520;DHT22;2272;49.226;8.108;2024-02-16T10:47:59;17.50;99.90
4520;DHT22;2272;49.226;8.108;2024-02-16T10:50:26;17.60;99.90
4520;DHT22;2272;49.226;8.108;2024-02-16T10:52:53;17.70;99.90
4520;DHT22;2272;49.226;8.108;2024-02-16T10:55:23;17.90;99.90
4520;DHT22;2272;49.226;8.108;2024-02-16T10:57:51;18.10;99.90
4520;DHT22;2272;49.226;8.108;2024-02-16T11:00:21;18.10;99.90
4520;DHT22;2272;49.226;8.108;2024-02-16T11:02:52;18.10;99.90
4520;DHT22;2272;49.226;8.108;2024-02-16T11:05:34;18.00;99.90
4520;DHT22;2272;49.226;8.108;2024-02-16T11:08:04;18.00;99.90
4520;DHT22;2272;49.226;8.108;2024-02-16T11:10:31;18.10;99.90
4520;DHT22;2272;49.226;8.108;2024-02-16T11:13:02;18.10;99.90
4520;DHT22;2272;49.226;8.108;2024-02-16T11:15:31;18.10;99.90
4520;DHT22;2272;49.226;8.108;2024-02-16T11:17:59;18.10;99.90
4520;DHT22;2272;49.226;8.108;2024-02-16T11:20:27;18.10;99.90
4520;DHT22;2272;49.226;8.108;2024-02-16T11:22:53;17.90;99.90
4520;DHT22;2272;49.226;8.108;2024-02-16T11:25:31;17.80;99.90
4520;DHT22;2272;49.226;8.108;2024-02-16T11:27:58;17.60;99.90
4520;DHT22;2272;49.226;8.108;2024-02-16T11:30:26;17.50;99.90
4520;DHT22;2272;49.226;8.108;2024-02-16T11:32:53;17.30;99.90
4520;DHT22;2272;49.226;8.108;2024-02-16T11:35:20;17.20;99.90
4520;DHT22;2272;49.226;8.108;2024-02-16T11:37:47;17.10;99.90
4520;DHT22;2272;49.226;8.108;2024-02-16T11:40:13;17.00;99.90
4520;DHT22;2272;49.226;8.108;2024-02-16T11:42:40;16.90;99.90
4520;DHT22;2272;49.226;8.108;2024-02-16T11:45:10;16.90;99.90
4520;DHT22;2272;49.226;8.108;2024-02-16T11:47:39;16.70;99.90
4520;DHT22;2272;49.226;8.108;2024-02-16T11:50:07;16.70;99.90
4520;DHT22;2272;49.226;8.108;2024-02-16T11:52:36;16.60;99.90
4520;DHT22;2272;49.226;8.108;2024-02-16T11:55:04;16.60;99.90
4520;DHT22;2272;49.226;8.108;2024-02-16T11:57:34;16.60;99.90
4520;DHT22;2272;49.226;8.108;2024-02-16T12:00:02;16.70;99.90
4520;DHT22;2272;49.226;8.108;2024-02-16T12:02:34;16.70;99.90
4520;DHT22;2272;49.226;8.108;2024-02-16T12:05:03;16.70;99.90
4520;DHT22;2272;49.226;8.108;2024-02-16T12:07:31;16.60;99.90
4520;DHT22;2272;49.226;8.108;2024-02-16T12:09:59;16.60;99.90
4520;DHT22;2272;49.226;8.108;2024-02-16T12:12:27;16.60;99.90
4520;DHT22;2272;49.226;8.108;2024-02-16T12:14:54;16.60;99.90
4520;DHT22;2272;49.226;8.108;2024-02-16T12:17:21;16.70;99.90
4520;DHT22;2272;49.226;8.108;2024-02-16T12:19:50;16.70;99.90
4520;DHT22;2272;49.226;8.108;2024-02-16T12:22:19;16.70;99.90
4520;DHT22;2272;49.226;8.108;2024-02-16T12:24:46;16.70;99.90
4520;DHT22;2272;49.226;8.108;2024-02-16T12:27:13;16.70;99.90
4520;DHT22;2272;49.226;8.108;2024-02-16T12:29:43;16.60;99.90
4520;DHT22;2272;49.226;8.108;2024-02-16T12:32:10;16.50;99.90
4520;DHT22;2272;49.226;8.108;2024-02-16T12:34:37;16.50;99.90
4520;DHT22;2272;49.226;8.108;2024-02-16T12:37:04;16.40;99.90
4520;DHT22;2272;49.226;8.108;2024-02-16T12:39:34;16.40;99.90
4520;DHT22;2272;49.226;8.108;2024-02-16T12:42:01;16.40;99.90
4520;DHT22;2272;49.226;8.108;2024-02-16T12:44:28;16.50;99.90
4520;DHT22;2272;49.226;8.108;2024-02-16T12:46:55;16.50;99.90
4520;DHT22;2272;49.226;8.108;2024-02-16T12:49:22;16.50;99.90
4520;DHT22;2272;49.226;8.108;2024-02-16T12:51:49;16.50;99.90
4520;DHT22;2272;49.226;8.108;2024-02-16T12:54:16;16.60;99.90
4520;DHT22;2272;49.226;8.108;2024-02-16T12:56:46;16.60;99.90
4520;DHT22;2272;49.226;8.108;2024-02-16T12:59:13;16.60;99.90
4520;DHT22;2272;49.226;8.108;2024-02-16T13:01:40;16.60;99.90
4520;DHT22;2272;49.226;8.108;2024-02-16T13:04:08;16.50;99.90
4520;DHT22;2272;49.226;8.108;2024-02-16T13:06:35;16.50;99.90
4520;DHT22;2272;49.226;8.108;2024-02-16T13:09:02;16.30;99.90
4520;DHT22;2272;49.226;8.108;2024-02-16T13:11:29;16.20;99.90
4520;DHT22;2272;49.226;8.108;2024-02-16T13:13:57;16.10;99.90
4520;DHT22;2272;49.226;8.108;2024-02-16T13:16:24;15.90;99.90
4520;DHT22;2272;49.226;8.108;2024-02-16T13:18:52;15.80;99.90
4520;DHT22;2272;49.226;8.108;2024-02-16T13:21:19;15.80;99.90
4520;DHT22;2272;49.226;8.108;2024-02-16T13:23:45;15.80;99.90
4520;DHT22;2272;49.226;8.108;2024-02-16T13:26:12;15.80;99.90
4520;DHT22;2272;49.226;8.108;2024-02-16T13:28:39;15.90;99.90
4520;DHT22;2272;49.226;8.108;2024-02-16T13:31:07;16.00;99.90
4520;DHT22;2272;49.226;8.108;2024-02-16T13:33:35;16.00;99.90
4520;DHT22;2272;49.226;8.108;2024-02-16T13:36:02;16.10;99.90
4520;DHT22;2272;49.226;8.108;2024-02-16T13:38:30;16.30;99.90
4520;DHT22;2272;49.226;8.108;2024-02-16T13:40:57;16.40;99.90
4520;DHT22;2272;49.226;8.108;2024-02-16T13:43:24;16.40;99.90
4520;DHT22;2272;49.226;8.108;2024-02-16T13:45:52;16.30;99.90
4520;DHT22;2272;49.226;8.108;2024-02-16T13:48:20;16.30;99.90
4520;DHT22;2272;49.226;8.108;2024-02-16T13:50:47;16.30;99.90
4520;DHT22;2272;49.226;8.108;2024-02-16T13:53:15;16.20;99.90
4520;DHT22;2272;49.226;8.108;2024-02-16T13:55:42;16.20;99.90
4520;DHT22;2272;49.226;8.108;2024-02-16T13:58:09;16.30;99.90
4520;DHT22;2272;49.226;8.108;2024-02-16T14:00:36;16.20;99.90
4520;DHT22;2272;49.226;8.108;2024-02-16T14:03:04;16.20;99.90
4520;DHT22;2272;49.226;8.108;2024-02-16T14:05:32;16.20;99.90
4520;DHT22;2272;49.226;8.108;2024-02-16T14:07:59;16.10;99.90
4520;DHT22;2272;49.226;8.108;2024-02-16T14:10:25;16.10;99.90
4520;DHT22;2272;49.226;8.108;2024-02-16T14:12:52;16.00;99.90
4520;DHT22;2272;49.226;8.108;2024-02-16T14:15:19;16.00;99.90
4520;DHT22;2272;49.226;8.108;2024-02-16T14:17:46;15.90;99.90
4520;DHT22;2272;49.226;8.108;2024-02-16T14:20:12;15.80;99.90
4520;DHT22;2272;49.226;8.108;2024-02-16T14:22:41;15.80;99.90
4520;DHT22;2272;49.226;8.108;2024-02-16T14:25:08;15.70;99.90
4520;DHT22;2272;49.226;8.108;2024-02-16T14:27:36;15.60;99.90
4520;DHT22;2272;49.226;8.108;2024-02-16T14:30:04;15.60;99.90
4520;DHT22;2272;49.226;8.108;2024-02-16T14:32:31;15.60;99.90
4520;DHT22;2272;49.226;8.108;2024-02-16T14:34:58;15.50;99.90
4520;DHT22;2272;49.226;8.108;2024-02-16T14:37:25;15.50;99.90
4520;DHT22;2272;49.226;8.108;2024-02-16T14:39:55;15.40;99.90
4520;DHT22;2272;49.226;8.108;2024-02-16T14:42:23;15.40;99.90
4520;DHT22;2272;49.226;8.108;2024-02-16T14:44:49;15.30;99.90
4520;DHT22;2272;49.226;8.108;2024-02-16T14:47:16;15.30;99.90
4520;DHT22;2272;49.226;8.108;2024-02-16T14:49:43;15.20;99.90
4520;DHT22;2272;49.226;8.108;2024-02-16T14:52:10;15.10;99.90
4520;DHT22;2272;49.226;8.108;2024-02-16T14:54:37;15.10;99.90
4520;DHT22;2272;49.226;8.108;2024-02-16T14:57:09;15.00;99.90
4520;DHT22;2272;49.226;8.108;2024-02-16T14:59:36;15.00;99.90
4520;DHT22;2272;49.226;8.108;2024-02-16T15:02:03;14.90;99.90
4520;DHT22;2272;49.226;8.108;2024-02-16T15:04:30;14.80;99.90
4520;DHT22;2272;49.226;8.108;2024-02-16T15:06:57;14.70;99.90
4520;DHT22;2272;49.226;8.108;2024-02-16T15:09:23;14.60;99.90
4520;DHT22;2272;49.226;8.108;2024-02-16T15:11:50;14.60;99.90
4520;DHT22;2272;49.226;8.108;2024-02-16T15:14:18;14.50;99.90
4520;DHT22;2272;49.226;8.108;2024-02-16T15:16:45;14.40;99.90
4520;DHT22;2272;49.226;8.108;2024-02-16T15:19:12;14.30;99.90
4520;DHT22;2272;49.226;8.108;2024-02-16T15:21:39;14.20;99.90
4520;DHT22;2272;49.226;8.108;2024-02-16T15:24:06;14.20;99.90
4520;DHT22;2272;49.226;8.108;2024-02-16T15:26:33;14.20;99.90
4520;DHT22;2272;49.226;8.108;2024-02-16T15:29:00;14.10;99.90
4520;DHT22;2272;49.226;8.108;2024-02-16T15:31:28;14.10;99.90
4520;DHT22;2272;49.226;8.108;2024-02-16T15:33:55;14.00;99.90
4520;DHT22;2272;49.226;8.108;2024-02-16T15:36:25;14.00;99.90
4520;DHT22;2272;49.226;8.108;2024-02-16T15:38:52;14.00;99.90
4520;DHT22;2272;49.226;8.108;2024-02-16T15:41:19;13.90;99.90
4520;DHT22;2272;49.226;8.108;2024-02-16T15:43:46;13.90;99.90
4520;DHT22;2272;49.226;8.108;2024-02-16T15:46:12;13.90;99.90
4520;DHT22;2272;49.226;8.108;2024-02-16T15:48:41;13.90;99.90
4520;DHT22;2272;49.226;8.108;2024-02-16T15:51:07;13.90;99.90
4520;DHT22;2272;49.226;8.108;2024-02-16T15:53:35;13.80;99.90
4520;DHT22;2272;49.226;8.108;2024-02-16T15:56:02;13.80;99.90
4520;DHT22;2272;49.226;8.108;2024-02-16T15:58:30;13.80;99.90
4520;DHT22;2272;49.226;8.108;2024-02-16T16:00:57;13.70;99.90
4520;DHT22;2272;49.226;8.108;2024-02-16T16:03:24;13.70;99.90
4520;DHT22;2272;49.226;8.108;2024-02-16T16:06:04;13.70;99.90